createdAt,value
2018-07-03T00:00:09.216Z,7.1
2018-07-03T00:06:04.211Z,9.97
2018-07-03T00:11:59.268Z,11.74
2018-07-03T00:17:54.244Z,6.41
2018-07-03T00:23:49.273Z,11.46
2018-07-03T00:29:44.229Z,6.89
2018-07-03T00:35:39.202Z,11.24
2018-07-03T00:41:34.239Z,10.91
2018-07-03T00:47:29.243Z,9.8
2018-07-03T00:53:24.262Z,13.76
2018-07-03T00:59:19.234Z,10.52
2018-07-03T01:05:14.215Z,10.06
2018-07-03T01:11:09.201Z,11.68
2018-07-03T01:17:04.246Z,9.6
2018-07-03T01:22:59.262Z,13.44
2018-07-03T01:28:54.257Z,10.68
2018-07-03T01:34:49.276Z,9.77
2018-07-03T01:40:44.268Z,11.39
2018-07-03T01:46:39.232Z,15.01
2018-07-03T01:52:34.250Z,18.65
2018-07-03T01:58:29.215Z,21.61
2018-07-03T02:04:24.211Z,20.09
2018-07-03T02:10:19.283Z,18.46
2018-07-03T02:16:14.264Z,9.89
2018-07-03T02:22:09.232Z,8.83
2018-07-03T02:28:04.254Z,8.61
2018-07-03T02:33:59.245Z,10.54
2018-07-03T02:39:54.205Z,8.78
2018-07-03T02:45:49.212Z,11.79
2018-07-03T02:51:44.300Z,11.63
2018-07-03T02:57:39.253Z,8.23
2018-07-03T03:03:34.263Z,8.63
2018-07-03T03:09:29.212Z,7.98
2018-07-03T03:15:24.282Z,7.69
2018-07-03T03:21:19.232Z,16.79
2018-07-03T03:27:14.311Z,8.08
2018-07-03T03:33:09.304Z,9.05
2018-07-03T03:39:04.217Z,11.28
2018-07-03T03:44:59.268Z,8.98
2018-07-03T03:50:54.287Z,8.5
2018-07-03T03:56:49.240Z,10.94
2018-07-03T04:02:44.245Z,11.27
2018-07-03T04:08:39.241Z,9.06
2018-07-03T04:14:34.227Z,15.29
2018-07-03T04:20:29.223Z,16.83
2018-07-03T04:26:24.233Z,12.38
2018-07-03T04:32:19.279Z,19.06
2018-07-03T04:38:14.234Z,13.06
2018-07-03T04:44:09.316Z,13.62
2018-07-03T04:50:04.252Z,12.86
2018-07-03T04:55:59.255Z,23.48
2018-07-03T05:01:54.289Z,11.24
2018-07-03T05:07:49.271Z,13.62
2018-07-03T05:13:44.278Z,12.02
2018-07-03T05:19:39.258Z,10.9
2018-07-03T05:25:34.283Z,12.06
2018-07-03T05:31:29.431Z,9.54
2018-07-03T05:37:24.235Z,12.13
2018-07-03T05:43:19.234Z,17.01
2018-07-03T05:49:14.267Z,19.34
2018-07-03T05:55:09.467Z,12.62
2018-07-03T06:01:04.286Z,17.13
2018-07-03T06:06:59.259Z,18.79
2018-07-03T06:12:54.306Z,12.59
2018-07-03T06:18:49.310Z,21.63
2018-07-03T06:24:44.389Z,19.61
2018-07-03T06:30:39.275Z,15.33
2018-07-03T06:36:34.365Z,13.75
2018-07-03T06:42:29.243Z,12.57
2018-07-03T06:48:24.242Z,13.15
2018-07-03T06:54:19.262Z,11.82
2018-07-03T07:00:14.258Z,12.43
2018-07-03T07:06:09.312Z,16.41
2018-07-03T07:12:04.347Z,15.4
2018-07-03T07:17:59.289Z,19.99
2018-07-03T07:23:54.311Z,36.29
2018-07-03T07:29:49.370Z,103.05
2018-07-03T07:35:44.277Z,77.88
2018-07-03T07:41:39.285Z,21.89
2018-07-03T07:47:34.252Z,17.27
2018-07-03T07:53:29.342Z,14.93
2018-07-03T07:59:24.332Z,18.71
2018-07-03T08:05:19.327Z,24.37
2018-07-03T08:11:14.331Z,12.7
2018-07-03T08:17:09.266Z,16.94
2018-07-03T08:23:04.275Z,19.57
2018-07-03T08:28:59.274Z,21.34
2018-07-03T08:34:54.311Z,16.37
2018-07-03T08:40:49.294Z,17.03
2018-07-03T08:46:44.337Z,17.19
2018-07-03T08:52:39.290Z,14.86
2018-07-03T08:58:34.304Z,21.32
2018-07-03T09:04:29.350Z,17.03
2018-07-03T09:10:24.301Z,22.54
2018-07-03T09:16:19.362Z,17.23
2018-07-03T09:22:14.350Z,19.8
2018-07-03T09:28:09.250Z,18.78
2018-07-03T09:34:04.326Z,15.51
2018-07-03T09:39:59.287Z,20.63
2018-07-03T09:51:49.287Z,18.94
2018-07-03T09:51:49.318Z,11.54
2018-07-03T09:57:44.376Z,15.39
2018-07-03T10:09:34.294Z,14.66
2018-07-03T10:09:34.352Z,15.51
2018-07-03T10:15:29.326Z,12.46
2018-07-03T10:21:24.318Z,10.85
2018-07-03T10:27:19.273Z,14.8
2018-07-03T10:33:14.405Z,15.36
2018-07-03T10:39:09.284Z,14.28
2018-07-03T10:45:04.280Z,8.99
2018-07-03T10:50:59.336Z,10.05
2018-07-03T10:56:54.303Z,10.93
2018-07-03T11:02:49.309Z,11.99
2018-07-03T11:08:44.312Z,13.31
2018-07-03T11:14:39.352Z,14.66
2018-07-03T11:20:34.348Z,15.02
2018-07-03T11:26:29.333Z,15.12
2018-07-03T11:32:28.270Z,11.87
2018-07-03T14:00:19.304Z,14.96
2018-07-03T14:06:14.303Z,48.39
2018-07-03T14:12:09.390Z,20.87
2018-07-03T14:18:04.344Z,19.47
2018-07-03T14:23:59.329Z,19.3
2018-07-03T14:29:54.354Z,21.71
2018-07-03T14:35:49.370Z,16.95
2018-07-03T14:41:44.354Z,28.85
2018-07-03T14:53:34.358Z,22.68
2018-07-03T14:59:29.329Z,25.76
2018-07-03T15:05:24.364Z,22.49
2018-07-03T15:11:19.337Z,13.35
2018-07-03T15:17:14.354Z,18.33
2018-07-03T15:23:09.401Z,19.67
2018-07-03T15:29:04.370Z,16.87
2018-07-03T15:34:59.440Z,22.21
2018-07-03T15:40:54.369Z,23.55
2018-07-03T15:46:49.378Z,16.07
2018-07-03T15:52:44.347Z,13.35
2018-07-03T15:58:39.379Z,16.38
2018-07-03T16:04:34.364Z,23.38
2018-07-03T16:10:29.376Z,20.29
2018-07-03T16:16:24.329Z,17.6
2018-07-03T16:22:19.346Z,12.4
2018-07-03T16:40:04.387Z,14.95
2018-07-03T16:40:04.400Z,15.59
2018-07-03T16:40:04.423Z,14.95
2018-07-03T16:45:59.365Z,15.26
2018-07-03T16:51:54.881Z,18.73
2018-07-03T16:57:49.347Z,15.36
2018-07-03T20:07:09.408Z,13.55
2018-07-03T20:13:04.481Z,20.01
2018-07-03T20:18:59.425Z,21.75
2018-07-03T20:24:54.455Z,21.26
2018-07-03T20:30:49.404Z,26.4
2018-07-03T20:36:44.413Z,22.18
2018-07-03T20:42:39.424Z,28.04
2018-07-03T20:48:34.378Z,26.16
2018-07-03T20:54:29.397Z,24.18
2018-07-03T21:00:24.379Z,27.13
2018-07-03T21:06:19.426Z,22.83
2018-07-03T21:12:14.380Z,23.16
2018-07-03T21:18:09.417Z,24.31
2018-07-03T21:24:04.433Z,23.67
2018-07-03T21:29:59.372Z,26.2
2018-07-03T21:35:54.386Z,24.46
2018-07-03T21:41:49.387Z,23.55
2018-07-03T21:47:44.384Z,26.43
2018-07-03T21:53:39.444Z,23.08
2018-07-03T21:59:34.396Z,28.49
2018-07-03T22:05:29.410Z,25.92
2018-07-03T22:11:24.381Z,19.96
2018-07-03T22:17:19.416Z,26.84
2018-07-03T22:23:14.427Z,33.44
2018-07-03T22:29:09.470Z,24.52
2018-07-03T22:35:04.402Z,26.46
2018-07-03T22:40:59.454Z,30.68
2018-07-03T22:46:54.462Z,22.53
2018-07-03T22:52:49.468Z,32.7
2018-07-03T22:58:44.409Z,18.8
2018-07-03T23:04:39.431Z,29.7
2018-07-03T23:10:34.431Z,24.08
2018-07-03T23:16:29.451Z,23.66
2018-07-03T23:22:24.429Z,25.37
2018-07-03T23:28:19.429Z,18.45
2018-07-03T23:34:14.457Z,28.33
2018-07-03T23:40:09.405Z,27.93
2018-07-03T23:51:59.433Z,24.07
2018-07-03T23:51:59.442Z,22.31
2018-07-03T23:57:54.409Z,23.21
